Coalville, Utah
Current Conditions -  °F | °C
As of 7:35 PM on Friday 24 Oct 2014 (Local Time) from K36U Reporting Station
Clear Clear  
Wind Chill: 50°   Ceiling: Unl
Heat Index: 50°   Visibility: 10mi
Dew Point: 30°   Wind: 7mph
Humidity: 47%   Direction: 110°ESE
Pressure: 30.18"   Gusts: NA
Location:  40.92°N, 111.4°W
Report Text: K36U 250135Z AUTO 11006KT 10SM CLR 10/M01 A3018 RMK AO2
Loading
Personal Weather Stations






























Interactive Weather Map
Tropical Storm Tracking
New forecast layout! Learn more

10-Day Weather Forecast

Advertisements
Track Severe Weather on mobile